Selva, Italy

3:58 PM CEST on April 29, 2017 (GMT +0200)
Calata San Marco | | Change Station

Elev 0 ft 40.84 °N, 14.25 °E | Updated 1 minute ago

Partly Cloudy
Partly Cloudy
70.9 °F
Feels Like 77 °F
N
3.7
Wind Variable Wind from North
Gusts 10.6 mph

Today
High -- | Low -- °F
--% Chance of Precip.
Yesterday
High -- | Low -- °F
Precip. -- in
Pressure 29.83 in
Visibility 6.2 miles
Clouds Few 4000 ft
Heat Index 77 °F
Dew Point 49 °F
Humidity 45%
Rainfall Not available.
Snow Depth Not available.
6:03 AM 7:57 PM
Waxing Crescent, 14% visible
METAR LIRN 291350Z 02008KT 320V060 9999 FEW040 21/07 Q1010 NOSIG
Pressure 29.83 in
Visibility 6.2 miles
Clouds Few 4000 ft
Heat Index 77 °F
Dew Point 49 °F
Humidity 45%
Rainfall Not available.
Snow Depth Not available.
6:03 AM 7:57 PM
Waxing Crescent, 14% visible
METAR LIRN 291350Z 02008KT 320V060 9999 FEW040 21/07 Q1010 NOSIG

Get Severe Weather Alerts

Thanks for signing up!

Be on the lookout for a verification email in your inbox.

You'll start receiving the daily forecast at 8 AM.

×

10-Day Weather Forecast

×

Almanac

Astronomy

Apr. 29, 2017 Rise Set
Actual Time
Civil Twilight
Nautical Twilight
Astronomical Twilight
Moon
Length of Visible Light
Length of Day
Tomorrow will be .
, % of the Moon is Illuminated

Today's Extremes

Country Highs Country Lows

Community

WunderPhotos

WunderBlog® & News

Nearby

Air Quality

  Air Quality AQ Index Pollutant
Not available.

Snow Depth

Station Depth Elevation

Earthquake Activity

City Distance Mag. Time & Date
Minimum magnitude displayed is 2.5.

Coastal Water Temperatures

Place Temperature

Stations

Nearby Weather Stations

Station Location Temp. Windchill Dew Point Humidity Wind Precip. Elev Updated Type